createdAt,value
2018-07-02T00:00:54.411Z,18.11
2018-07-02T00:01:54.983Z,18.18
2018-07-02T00:02:55.546Z,18.19
2018-07-02T00:03:56.108Z,18.14
2018-07-02T00:04:56.670Z,18.18
2018-07-02T00:05:57.220Z,18.11
2018-07-02T00:06:57.769Z,18.08
2018-07-02T00:07:58.318Z,18.00
2018-07-02T00:08:58.865Z,17.97
2018-07-02T00:09:59.408Z,18.01
2018-07-02T00:10:59.963Z,17.98
2018-07-02T00:12:00.512Z,17.98
2018-07-02T00:13:01.056Z,18.04
2018-07-02T00:14:01.607Z,18.00
2018-07-02T00:15:02.157Z,17.97
2018-07-02T00:16:02.707Z,17.98
2018-07-02T00:17:03.251Z,17.83
2018-07-02T00:18:03.803Z,17.87
2018-07-02T00:19:04.349Z,18.03
2018-07-02T00:20:04.903Z,18.03
2018-07-02T00:21:05.450Z,18.03
2018-07-02T00:22:05.997Z,17.97
2018-07-02T00:23:06.544Z,17.95
2018-07-02T00:24:07.092Z,18.08
2018-07-02T00:25:07.639Z,18.18
2018-07-02T00:26:08.200Z,18.10
2018-07-02T00:27:08.737Z,18.12
2018-07-02T00:28:09.288Z,17.98
2018-07-02T00:29:09.841Z,18.00
2018-07-02T00:30:10.395Z,17.83
2018-07-02T00:31:10.949Z,17.82
2018-07-02T00:32:11.500Z,17.85
2018-07-02T00:33:12.051Z,17.79
2018-07-02T00:34:12.593Z,17.75
2018-07-02T00:35:13.138Z,17.83
2018-07-02T00:36:13.688Z,17.86
2018-07-02T00:37:14.265Z,17.79
2018-07-02T00:38:14.791Z,17.79
2018-07-02T00:39:15.344Z,17.79
2018-07-02T00:40:15.894Z,17.79
2018-07-02T00:41:16.443Z,17.71
2018-07-02T00:42:16.991Z,17.70
2018-07-02T00:43:17.588Z,17.77
2018-07-02T00:44:18.091Z,17.72
2018-07-02T00:45:18.640Z,17.74
2018-07-02T00:46:19.183Z,17.75
2018-07-02T00:47:19.734Z,17.56
2018-07-02T00:48:20.285Z,17.85
2018-07-02T00:49:20.830Z,17.80
2018-07-02T00:50:21.379Z,17.75
2018-07-02T00:51:21.929Z,17.70
2018-07-02T00:52:22.488Z,17.64
2018-07-02T00:53:23.032Z,17.54
2018-07-02T00:54:23.580Z,17.45
2018-07-02T00:55:24.134Z,17.41
2018-07-02T00:56:24.680Z,17.52
2018-07-02T00:57:25.244Z,17.44
2018-07-02T00:58:25.778Z,17.33
2018-07-02T00:59:26.330Z,17.39
2018-07-02T01:00:26.876Z,17.31
2018-07-02T01:01:27.424Z,17.31
2018-07-02T01:02:27.972Z,17.19
2018-07-02T01:03:28.517Z,17.26
2018-07-02T01:04:29.063Z,17.27
2018-07-02T01:05:29.608Z,17.18
2018-07-02T01:06:30.165Z,17.21
2018-07-02T01:07:30.708Z,17.21
2018-07-02T01:08:31.252Z,17.23
2018-07-02T01:09:31.802Z,17.16
2018-07-02T01:10:32.357Z,17.21
2018-07-02T01:11:32.907Z,17.21
2018-07-02T01:12:33.460Z,17.14
2018-07-02T01:13:34.012Z,17.15
2018-07-02T01:14:34.563Z,17.15
2018-07-02T01:15:35.108Z,17.08
2018-07-02T01:16:35.667Z,17.01
2018-07-02T01:17:36.213Z,17.09
2018-07-02T01:18:36.761Z,17.14
2018-07-02T01:19:37.309Z,17.06
2018-07-02T01:20:37.857Z,17.09
2018-07-02T01:21:38.401Z,17.01
2018-07-02T01:22:38.947Z,17.06
2018-07-02T01:23:39.506Z,16.98
2018-07-02T01:24:40.048Z,17.00
2018-07-02T01:25:40.592Z,17.04
2018-07-02T01:26:41.140Z,17.00
2018-07-02T01:27:41.693Z,16.98
2018-07-02T01:28:42.241Z,16.98
2018-07-02T01:29:42.790Z,16.93
2018-07-02T01:30:43.343Z,16.98
2018-07-02T01:31:43.894Z,16.98
2018-07-02T01:32:44.442Z,17.00
2018-07-02T01:33:45.048Z,16.89
2018-07-02T01:34:45.536Z,16.83
2018-07-02T01:35:46.081Z,16.96
2018-07-02T01:36:46.632Z,16.96
2018-07-02T01:37:47.180Z,16.98
2018-07-02T01:38:47.743Z,16.86
2018-07-02T01:39:48.275Z,17.00
2018-07-02T01:40:48.822Z,16.90
2018-07-02T01:41:49.369Z,16.89
2018-07-02T01:42:49.923Z,16.83
2018-07-02T01:43:50.473Z,16.76
2018-07-02T01:44:51.020Z,16.71
2018-07-02T01:45:51.576Z,16.86
2018-07-02T01:46:52.123Z,16.83
2018-07-02T01:47:52.677Z,16.78
2018-07-02T01:48:53.223Z,16.71
2018-07-02T01:49:53.775Z,16.63
2018-07-02T01:50:54.322Z,16.57
2018-07-02T01:51:54.861Z,16.63
2018-07-02T01:52:55.411Z,16.61
2018-07-02T01:53:55.951Z,16.46
2018-07-02T01:54:56.499Z,16.49
2018-07-02T01:55:57.050Z,16.57
2018-07-02T01:56:57.598Z,16.51
2018-07-02T01:57:58.139Z,16.39
2018-07-02T01:58:58.683Z,16.42
2018-07-02T01:59:59.234Z,16.43
2018-07-02T02:00:59.783Z,16.42
2018-07-02T02:02:00.330Z,16.31
2018-07-02T02:03:00.895Z,16.36
2018-07-02T02:04:01.424Z,16.25
2018-07-02T02:05:01.974Z,16.12
2018-07-02T02:06:02.522Z,16.10
2018-07-02T02:07:03.069Z,16.10
2018-07-02T02:08:03.615Z,16.08
2018-07-02T02:09:04.163Z,16.01
2018-07-02T02:10:04.714Z,15.95
2018-07-02T02:11:05.267Z,15.98
2018-07-02T02:12:05.817Z,15.83
2018-07-02T02:13:06.366Z,15.86
2018-07-02T02:14:06.917Z,15.91
2018-07-02T02:15:07.457Z,15.86
2018-07-02T02:16:08.006Z,15.83
2018-07-02T02:17:08.556Z,15.87
2018-07-02T02:18:09.104Z,15.77
2018-07-02T02:19:09.649Z,15.77
2018-07-02T02:20:10.201Z,15.76
2018-07-02T02:21:10.752Z,15.64
2018-07-02T02:22:11.301Z,15.64
2018-07-02T02:23:11.848Z,15.58
2018-07-02T02:24:12.393Z,15.58
2018-07-02T02:25:12.937Z,15.50
2018-07-02T02:26:13.487Z,15.50
2018-07-02T02:27:14.034Z,15.43
2018-07-02T02:28:14.589Z,15.31
2018-07-02T02:29:15.142Z,15.28
2018-07-02T02:30:15.686Z,15.26
2018-07-02T02:31:16.235Z,15.24
2018-07-02T02:32:16.781Z,15.21
2018-07-02T02:33:17.330Z,15.31
2018-07-02T02:34:17.876Z,15.26
2018-07-02T02:35:18.424Z,15.21
2018-07-02T02:36:18.971Z,15.17
2018-07-02T02:37:19.517Z,15.21
2018-07-02T02:38:20.128Z,15.17
2018-07-02T02:39:20.609Z,15.06
2018-07-02T02:40:21.152Z,15.07
2018-07-02T02:41:21.698Z,15.07
2018-07-02T02:42:22.239Z,15.03
2018-07-02T02:43:22.782Z,14.89
2018-07-02T02:44:23.335Z,14.96
2018-07-02T02:45:23.884Z,15.06
2018-07-02T02:46:24.433Z,15.00
2018-07-02T02:47:24.982Z,15.01
2018-07-02T02:48:25.531Z,15.03
2018-07-02T02:49:26.074Z,15.00
2018-07-02T02:50:26.625Z,15.03
2018-07-02T02:51:27.169Z,14.95
2018-07-02T02:52:27.718Z,15.03
2018-07-02T02:53:28.264Z,14.88
2018-07-02T02:54:28.811Z,14.88
2018-07-02T02:55:29.368Z,14.94
2018-07-02T02:56:29.916Z,14.92
2018-07-02T02:57:30.459Z,14.78
2018-07-02T02:58:31.012Z,14.91
2018-07-02T02:59:31.562Z,14.91
2018-07-02T03:00:32.114Z,14.96
2018-07-02T03:01:32.657Z,14.88
2018-07-02T03:02:33.208Z,14.82
2018-07-02T03:03:33.757Z,14.84
2018-07-02T03:04:34.306Z,14.81
2018-07-02T03:05:34.859Z,14.81
2018-07-02T03:06:35.402Z,14.81
2018-07-02T03:07:35.953Z,14.75
2018-07-02T03:08:36.506Z,14.84
2018-07-02T03:09:37.086Z,14.75
2018-07-02T03:10:37.601Z,14.81
2018-07-02T03:11:38.151Z,14.78
2018-07-02T03:12:38.702Z,14.70
2018-07-02T03:13:39.253Z,14.66
2018-07-02T03:14:39.803Z,14.68
2018-07-02T03:15:40.350Z,14.62
2018-07-02T03:16:40.900Z,14.73
2018-07-02T03:17:41.447Z,14.68
2018-07-02T03:18:41.998Z,14.63
2018-07-02T03:19:42.545Z,14.50
2018-07-02T03:20:43.096Z,14.58
2018-07-02T03:21:43.645Z,14.60
2018-07-02T03:22:44.199Z,14.57
2018-07-02T03:23:44.744Z,14.48
2018-07-02T03:24:45.294Z,14.50
2018-07-02T03:25:45.846Z,14.47
2018-07-02T03:26:46.391Z,14.54
2018-07-02T03:27:46.945Z,14.50
2018-07-02T03:28:47.491Z,14.44
2018-07-02T03:29:48.045Z,14.47
2018-07-02T03:30:48.596Z,14.50
2018-07-02T03:31:49.146Z,14.51
2018-07-02T03:32:49.690Z,14.50
2018-07-02T03:33:50.241Z,14.30
2018-07-02T03:34:50.795Z,14.47
2018-07-02T03:35:51.345Z,14.39
2018-07-02T03:36:51.894Z,14.39
2018-07-02T03:37:52.447Z,14.47
2018-07-02T03:38:53.001Z,14.39
2018-07-02T03:39:53.551Z,14.48
2018-07-02T03:40:54.098Z,14.47
2018-07-02T03:41:54.646Z,14.47
2018-07-02T03:42:55.198Z,14.44
2018-07-02T03:43:55.748Z,14.40
2018-07-02T03:44:56.303Z,14.50
2018-07-02T03:45:56.850Z,14.48
2018-07-02T03:46:57.416Z,14.50
2018-07-02T03:47:57.964Z,14.50
2018-07-02T03:48:58.515Z,14.55
2018-07-02T03:49:59.066Z,14.57
2018-07-02T03:50:59.614Z,14.50
2018-07-02T03:52:00.238Z,14.48
2018-07-02T03:53:00.717Z,14.44
2018-07-02T03:54:01.269Z,14.52
2018-07-02T03:55:01.823Z,14.58
2018-07-02T03:56:02.380Z,14.55
2018-07-02T03:57:02.929Z,14.60
2018-07-02T03:58:03.482Z,14.69
2018-07-02T03:59:04.037Z,14.63
2018-07-02T04:00:04.592Z,14.69
2018-07-02T04:01:05.142Z,14.68
2018-07-02T04:02:05.697Z,14.73
2018-07-02T04:03:06.253Z,14.73
2018-07-02T04:04:06.807Z,14.81
2018-07-02T04:05:07.357Z,14.88
2018-07-02T04:06:07.912Z,14.86
2018-07-02T04:07:08.470Z,14.88
2018-07-02T04:08:09.020Z,15.00
2018-07-02T04:09:09.569Z,14.99
2018-07-02T04:10:10.119Z,14.96
2018-07-02T04:11:10.672Z,15.09
2018-07-02T04:12:11.297Z,15.06
2018-07-02T04:13:11.781Z,15.06
2018-07-02T04:14:12.331Z,15.19
2018-07-02T04:15:12.886Z,15.25
2018-07-02T04:16:13.437Z,15.18
2018-07-02T04:17:13.985Z,15.14
2018-07-02T04:18:14.539Z,15.19
2018-07-02T04:19:15.086Z,15.34
2018-07-02T04:20:15.635Z,15.36
2018-07-02T04:21:16.189Z,15.46
2018-07-02T04:22:16.739Z,15.54
2018-07-02T04:23:17.296Z,15.54
2018-07-02T04:24:17.846Z,15.62
2018-07-02T04:25:18.396Z,15.61
2018-07-02T04:26:18.948Z,15.68
2018-07-02T04:27:19.499Z,15.65
2018-07-02T04:28:20.051Z,15.76
2018-07-02T04:29:20.605Z,15.84
2018-07-02T04:30:21.151Z,15.87
2018-07-02T04:31:21.711Z,15.99
2018-07-02T04:32:22.267Z,16.04
2018-07-02T04:33:22.824Z,16.12
2018-07-02T04:34:23.370Z,16.07
2018-07-02T04:35:23.941Z,16.12
2018-07-02T04:36:24.488Z,16.02
2018-07-02T04:37:25.043Z,16.13
2018-07-02T04:38:25.599Z,16.08
2018-07-02T04:39:26.152Z,16.13
2018-07-02T04:40:26.709Z,16.04
2018-07-02T04:41:27.256Z,16.08
2018-07-02T04:42:27.810Z,16.10
2018-07-02T04:43:28.367Z,16.10
2018-07-02T04:44:28.991Z,16.20
2018-07-02T04:45:29.468Z,16.27
2018-07-02T04:46:30.024Z,16.29
2018-07-02T04:47:33.929Z,16.36
2018-07-02T04:48:31.127Z,16.32
2018-07-02T04:49:31.677Z,16.36
2018-07-02T04:50:32.229Z,16.39
2018-07-02T04:51:32.780Z,16.29
2018-07-02T04:52:33.331Z,16.29
2018-07-02T04:53:33.878Z,16.33
2018-07-02T04:54:34.431Z,16.25
2018-07-02T04:55:34.984Z,16.16
2018-07-02T04:56:35.530Z,16.27
2018-07-02T04:57:36.085Z,16.51
2018-07-02T04:58:36.642Z,16.98
2018-07-02T04:59:37.243Z,17.67
2018-07-02T05:00:37.745Z,18.16
2018-07-02T05:01:38.307Z,18.51
2018-07-02T05:02:38.868Z,18.85
2018-07-02T05:03:39.429Z,19.00
2018-07-02T05:04:39.991Z,19.07
2018-07-02T05:05:40.574Z,19.04
2018-07-02T05:06:41.121Z,19.09
2018-07-02T05:07:41.696Z,19.41
2018-07-02T05:08:42.243Z,19.94
2018-07-02T05:09:42.808Z,20.21
2018-07-02T05:10:43.372Z,20.55
2018-07-02T05:11:43.935Z,20.87
2018-07-02T05:12:44.497Z,21.20
2018-07-02T05:13:45.057Z,21.22
2018-07-02T05:14:45.617Z,21.54
2018-07-02T05:15:46.183Z,21.62
2018-07-02T05:16:46.748Z,21.91
2018-07-02T05:17:47.311Z,22.02
2018-07-02T05:18:47.877Z,22.02
2018-07-02T05:19:48.443Z,21.86
2018-07-02T05:20:49.012Z,21.82
2018-07-02T05:21:49.575Z,21.52
2018-07-02T05:22:50.139Z,21.05
2018-07-02T05:23:50.706Z,21.00
2018-07-02T05:24:51.276Z,20.95
2018-07-02T05:25:51.843Z,21.17
2018-07-02T05:26:52.409Z,21.40
2018-07-02T05:27:52.973Z,21.72
2018-07-02T05:28:53.543Z,21.91
2018-07-02T05:29:54.248Z,21.96
2018-07-02T05:30:54.669Z,22.11
2018-07-02T05:31:55.231Z,22.14
2018-07-02T05:32:55.795Z,22.18
2018-07-02T05:33:56.365Z,22.42
2018-07-02T05:34:56.932Z,22.23
2018-07-02T05:35:57.497Z,22.10
2018-07-02T05:36:58.059Z,21.70
2018-07-02T05:37:58.630Z,21.75
2018-07-02T05:38:59.196Z,21.98
2018-07-02T05:39:59.760Z,22.23
2018-07-02T05:41:00.325Z,22.55
2018-07-02T05:42:00.894Z,22.69
2018-07-02T05:43:01.513Z,22.79
2018-07-02T05:44:02.088Z,22.90
2018-07-02T05:45:02.656Z,22.99
2018-07-02T05:46:03.225Z,23.10
2018-07-02T05:47:03.797Z,23.25
2018-07-02T05:48:04.370Z,23.43
2018-07-02T05:49:04.939Z,23.51
2018-07-02T05:50:05.502Z,23.44
2018-07-02T05:51:06.079Z,23.50
2018-07-02T05:52:06.650Z,23.69
2018-07-02T05:53:07.224Z,23.84
2018-07-02T05:54:07.793Z,24.18
2018-07-02T05:55:08.364Z,24.41
2018-07-02T05:56:08.930Z,24.58
2018-07-02T05:57:09.508Z,24.77
2018-07-02T05:58:10.071Z,24.91
2018-07-02T05:59:10.647Z,24.99
2018-07-02T06:00:11.290Z,25.02
2018-07-02T06:01:11.784Z,25.02
2018-07-02T06:02:12.356Z,25.17
2018-07-02T06:03:12.930Z,25.41
2018-07-02T06:04:13.500Z,25.56
2018-07-02T06:05:14.073Z,25.75
2018-07-02T06:06:14.643Z,25.83
2018-07-02T06:07:15.217Z,26.00
2018-07-02T06:08:15.792Z,26.02
2018-07-02T06:09:16.379Z,26.21
2018-07-02T06:10:16.950Z,26.65
2018-07-02T06:11:17.524Z,26.83
2018-07-02T06:12:18.095Z,27.02
2018-07-02T06:13:18.725Z,26.83
2018-07-02T06:14:19.240Z,26.91
2018-07-02T06:15:19.811Z,26.98
2018-07-02T06:16:20.387Z,26.99
2018-07-02T06:17:20.956Z,26.74
2018-07-02T06:18:21.530Z,26.87
2018-07-02T06:19:22.105Z,26.81
2018-07-02T06:20:22.679Z,26.66
2018-07-02T06:21:23.250Z,25.98
2018-07-02T06:22:23.826Z,25.72
2018-07-02T06:23:24.394Z,25.50
2018-07-02T06:24:24.968Z,25.17
2018-07-02T06:25:25.538Z,25.28
2018-07-02T06:26:26.109Z,25.73
2018-07-02T06:27:26.683Z,25.91
2018-07-02T06:28:27.252Z,25.75
2018-07-02T06:29:27.819Z,25.76
2018-07-02T06:30:28.448Z,25.73
2018-07-02T06:31:28.969Z,25.99
2018-07-02T06:32:29.542Z,25.90
2018-07-02T06:33:30.112Z,25.87
2018-07-02T06:34:30.683Z,25.87
2018-07-02T06:35:31.256Z,25.91
2018-07-02T06:36:31.829Z,25.72
2018-07-02T06:37:32.400Z,25.66
2018-07-02T06:38:32.970Z,25.69
2018-07-02T06:39:33.541Z,25.69
2018-07-02T06:40:34.113Z,25.73
2018-07-02T06:41:34.683Z,26.00
2018-07-02T06:42:35.253Z,25.90
2018-07-02T06:43:35.826Z,25.86
2018-07-02T06:44:36.396Z,26.08
2018-07-02T06:45:36.961Z,26.03
2018-07-02T06:46:37.536Z,25.86
2018-07-02T06:47:38.110Z,25.58
2018-07-02T06:48:38.686Z,25.43
2018-07-02T06:49:39.257Z,25.53
2018-07-02T06:50:39.832Z,25.26
2018-07-02T06:51:40.397Z,25.13
2018-07-02T06:52:40.988Z,25.43
2018-07-02T06:53:41.544Z,25.62
2018-07-02T06:54:42.117Z,25.93
2018-07-02T06:55:42.694Z,25.99
2018-07-02T06:56:43.265Z,25.80
2018-07-02T06:57:43.840Z,25.71
2018-07-02T06:58:44.495Z,25.31
2018-07-02T06:59:44.979Z,25.21
2018-07-02T07:00:45.552Z,25.17
2018-07-02T07:01:46.124Z,25.44
2018-07-02T07:02:46.697Z,25.71
2018-07-02T07:03:47.271Z,25.53
2018-07-02T07:04:47.848Z,25.46
2018-07-02T07:05:48.418Z,25.69
2018-07-02T07:06:48.996Z,25.75
2018-07-02T07:07:49.573Z,25.66
2018-07-02T07:08:50.146Z,25.61
2018-07-02T07:09:50.729Z,25.35
2018-07-02T07:10:51.303Z,25.69
2018-07-02T07:11:51.871Z,26.16
2018-07-02T07:12:52.459Z,26.25
2018-07-02T07:13:53.042Z,26.10
2018-07-02T07:14:53.611Z,26.39
2018-07-02T07:15:54.182Z,26.78
2018-07-02T07:16:54.754Z,26.73
2018-07-02T07:17:55.318Z,26.85
2018-07-02T07:18:55.886Z,26.74
2018-07-02T07:19:56.461Z,26.95
2018-07-02T07:20:57.080Z,26.85
2018-07-02T07:21:57.651Z,26.71
2018-07-02T07:22:58.219Z,26.74
2018-07-02T07:23:58.785Z,27.00
2018-07-02T07:24:59.359Z,26.91
2018-07-02T07:25:59.933Z,26.87
2018-07-02T07:27:00.504Z,26.87
2018-07-02T07:28:01.074Z,26.93
2018-07-02T07:29:01.647Z,27.15
2018-07-02T07:30:02.224Z,27.55
2018-07-02T07:31:02.818Z,27.61
2018-07-02T07:32:03.358Z,27.55
2018-07-02T07:33:03.931Z,27.51
2018-07-02T07:34:04.508Z,27.24
2018-07-02T07:35:05.079Z,27.45
2018-07-02T07:36:05.656Z,27.45
2018-07-02T07:37:06.224Z,27.66
2018-07-02T07:38:06.791Z,27.83
2018-07-02T07:39:07.368Z,27.83
2018-07-02T07:40:07.937Z,28.13
2018-07-02T07:41:08.505Z,27.90
2018-07-02T07:42:09.078Z,27.99
2018-07-02T07:43:09.649Z,28.23
2018-07-02T07:44:10.219Z,28.20
2018-07-02T07:45:10.799Z,28.25
2018-07-02T07:46:11.374Z,28.13
2018-07-02T07:47:11.944Z,27.96
2018-07-02T07:48:12.516Z,28.11
2018-07-02T07:49:13.093Z,28.22
2018-07-02T07:50:13.676Z,28.42
2018-07-02T07:51:14.248Z,28.40
2018-07-02T07:52:14.816Z,28.36
2018-07-02T07:53:15.400Z,28.57
2018-07-02T07:54:15.956Z,28.75
2018-07-02T07:55:16.527Z,28.89
2018-07-02T07:56:17.099Z,28.70
2018-07-02T07:57:17.669Z,28.27
2018-07-02T07:58:18.242Z,28.26
2018-07-02T07:59:18.813Z,28.27
2018-07-02T08:00:19.380Z,28.29
2018-07-02T08:01:19.946Z,28.45
2018-07-02T08:02:20.524Z,28.32
2018-07-02T08:03:21.094Z,28.36
2018-07-02T08:04:21.664Z,28.22
2018-07-02T08:05:22.437Z,28.20
2018-07-02T08:06:23.007Z,28.41
2018-07-02T08:07:23.577Z,28.45
2018-07-02T08:08:24.149Z,28.29
2018-07-02T08:09:24.720Z,28.22
2018-07-02T08:10:25.359Z,28.50
2018-07-02T08:11:25.870Z,28.52
2018-07-02T08:12:26.488Z,28.30
2018-07-02T08:13:27.010Z,28.75
2018-07-02T08:14:27.586Z,29.26
2018-07-02T08:15:28.157Z,29.08
2018-07-02T08:16:28.733Z,28.84
2018-07-02T08:17:29.301Z,28.65
2018-07-02T08:18:29.873Z,28.30
2018-07-02T08:19:30.454Z,28.55
2018-07-02T08:20:31.019Z,28.40
2018-07-02T08:21:31.597Z,28.15
2018-07-02T08:22:32.165Z,27.99
2018-07-02T08:23:32.738Z,28.25
2018-07-02T08:24:33.312Z,28.57
2018-07-02T08:25:33.893Z,28.96
2018-07-02T08:26:34.457Z,28.91
2018-07-02T08:27:35.033Z,29.29
2018-07-02T08:28:35.606Z,29.27
2018-07-02T08:29:36.177Z,29.37
2018-07-02T08:30:36.749Z,29.41
2018-07-02T08:31:37.323Z,29.22
2018-07-02T08:32:37.891Z,29.07
2018-07-02T08:33:38.461Z,29.01
2018-07-02T08:34:39.032Z,28.79
2018-07-02T08:35:39.605Z,29.01
2018-07-02T08:36:40.173Z,29.05
2018-07-02T08:37:40.748Z,29.35
2018-07-02T08:38:41.316Z,29.57
2018-07-02T08:39:41.892Z,29.52
2018-07-02T08:40:42.461Z,29.26
2018-07-02T08:41:43.035Z,29.35
2018-07-02T08:42:43.607Z,29.27
2018-07-02T08:43:44.182Z,29.59
2018-07-02T08:44:44.756Z,30.05
2018-07-02T08:45:45.325Z,30.06
2018-07-02T08:46:45.914Z,30.08
2018-07-02T08:47:46.467Z,30.11
2018-07-02T08:48:47.041Z,29.90
2018-07-02T08:49:47.617Z,29.84
2018-07-02T08:50:48.191Z,29.78
2018-07-02T08:51:48.761Z,30.03
2018-07-02T08:52:49.356Z,30.01
2018-07-02T08:53:49.899Z,30.05
2018-07-02T08:54:50.473Z,30.15
2018-07-02T08:55:51.040Z,29.62
2018-07-02T08:56:51.612Z,29.85
2018-07-02T08:57:52.195Z,29.62
2018-07-02T08:58:52.768Z,29.78
2018-07-02T08:59:53.342Z,30.01
2018-07-02T09:00:53.916Z,30.19
2018-07-02T09:01:54.485Z,30.27
2018-07-02T09:02:55.052Z,30.35
2018-07-02T09:03:55.623Z,30.53
2018-07-02T09:04:56.205Z,30.40
2018-07-02T09:05:56.775Z,30.38
2018-07-02T09:06:57.433Z,30.38
2018-07-02T09:07:57.926Z,30.54
2018-07-02T09:08:58.511Z,30.46
2018-07-02T09:09:59.092Z,30.21
2018-07-02T09:10:59.667Z,30.12
2018-07-02T09:12:00.239Z,30.24
2018-07-02T09:13:00.805Z,30.81
2018-07-02T09:14:01.393Z,30.69
2018-07-02T09:15:01.960Z,30.75
2018-07-02T09:16:02.537Z,30.09
2018-07-02T09:17:03.101Z,30.16
2018-07-02T09:18:03.673Z,30.54
2018-07-02T09:19:04.254Z,30.72
2018-07-02T09:20:04.827Z,30.94
2018-07-02T09:21:05.407Z,31.10
2018-07-02T09:22:05.984Z,30.97
2018-07-02T09:23:06.566Z,31.12
2018-07-02T09:24:07.140Z,31.28
2018-07-02T09:25:07.713Z,31.21
2018-07-02T09:26:08.286Z,31.40
2018-07-02T09:27:08.862Z,31.25
2018-07-02T09:28:09.445Z,30.93
2018-07-02T09:29:10.012Z,30.81
2018-07-02T09:30:10.579Z,30.57
2018-07-02T09:31:11.153Z,30.54
2018-07-02T09:32:11.770Z,30.43
2018-07-02T09:33:12.293Z,30.94
2018-07-02T09:34:12.859Z,30.78
2018-07-02T09:35:13.432Z,30.33
2018-07-02T09:36:14.004Z,30.31
2018-07-02T09:37:14.586Z,30.62
2018-07-02T09:38:15.155Z,30.72
2018-07-02T09:39:15.757Z,30.64
2018-07-02T09:40:16.295Z,30.60
2018-07-02T09:41:16.872Z,30.47
2018-07-02T09:42:17.440Z,30.56
2018-07-02T09:43:18.011Z,30.49
2018-07-02T09:44:18.579Z,30.73
2018-07-02T09:45:19.153Z,30.35
2018-07-02T09:46:19.724Z,30.21
2018-07-02T09:47:20.293Z,30.53
2018-07-02T09:48:20.866Z,30.51
2018-07-02T09:49:21.436Z,30.26
2018-07-02T09:50:22.007Z,29.94
2018-07-02T09:51:22.574Z,30.13
2018-07-02T09:52:23.146Z,30.26
2018-07-02T09:53:23.714Z,30.49
2018-07-02T09:54:24.283Z,30.31
2018-07-02T09:55:24.855Z,30.26
2018-07-02T09:56:25.430Z,30.46
2018-07-02T09:57:26.003Z,30.56
2018-07-02T09:58:26.569Z,30.65
2018-07-02T09:59:27.142Z,30.86
2018-07-02T10:00:27.714Z,30.83
2018-07-02T10:01:28.284Z,30.68
2018-07-02T10:02:28.856Z,30.83
2018-07-02T10:03:29.427Z,30.64
2018-07-02T10:04:30.004Z,30.43
2018-07-02T10:05:30.582Z,30.49
2018-07-02T10:06:31.173Z,30.60
2018-07-02T10:07:31.725Z,30.56
2018-07-02T10:08:32.290Z,30.15
2018-07-02T10:09:32.864Z,30.30
2018-07-02T10:10:33.436Z,30.59
2018-07-02T10:11:34.008Z,30.38
2018-07-02T10:12:34.587Z,30.38
2018-07-02T10:13:35.152Z,30.38
2018-07-02T10:14:35.723Z,30.49
2018-07-02T10:15:36.309Z,30.53
2018-07-02T10:16:36.869Z,30.26
2018-07-02T10:17:37.434Z,30.30
2018-07-02T10:18:38.005Z,30.18
2018-07-02T10:19:38.574Z,30.18
2018-07-02T10:20:39.143Z,30.19
2018-07-02T10:21:39.711Z,30.43
2018-07-02T10:22:40.275Z,30.75
2018-07-02T10:23:40.902Z,30.62
2018-07-02T10:24:41.413Z,30.50
2018-07-02T10:25:41.985Z,30.60
2018-07-02T10:26:42.559Z,30.75
2018-07-02T10:27:43.337Z,30.64
2018-07-02T10:28:43.911Z,30.76
2018-07-02T10:29:44.476Z,30.78
2018-07-02T10:30:45.104Z,30.59
2018-07-02T10:31:45.623Z,30.66
2018-07-02T10:32:46.194Z,31.02
2018-07-02T10:33:46.787Z,31.02
2018-07-02T10:34:47.401Z,30.28
2018-07-02T10:35:47.922Z,30.30
2018-07-02T10:36:48.497Z,30.34
2018-07-02T10:37:49.069Z,30.71
2018-07-02T10:38:49.640Z,31.01
2018-07-02T10:39:50.218Z,31.27
2018-07-02T10:40:50.785Z,31.37
2018-07-02T10:41:51.350Z,31.49
2018-07-02T10:42:51.922Z,31.24
2018-07-02T10:43:52.494Z,31.12
2018-07-02T10:44:53.067Z,31.06
2018-07-02T10:45:53.633Z,31.17
2018-07-02T10:46:54.209Z,31.43
2018-07-02T10:47:54.788Z,31.50
2018-07-02T10:48:55.355Z,31.54
2018-07-02T10:49:55.928Z,31.25
2018-07-02T10:50:56.500Z,31.06
2018-07-02T10:51:57.072Z,30.69
2018-07-02T10:52:57.643Z,30.51
2018-07-02T10:53:58.207Z,30.21
2018-07-02T10:54:58.784Z,30.16
2018-07-02T10:55:59.357Z,30.40
2018-07-02T10:56:59.928Z,30.50
2018-07-02T10:58:00.507Z,30.56
2018-07-02T10:59:01.081Z,30.66
2018-07-02T11:00:01.652Z,30.90
2018-07-02T11:01:02.242Z,31.01
2018-07-02T11:02:02.812Z,31.32
2018-07-02T11:03:03.386Z,31.28
2018-07-02T11:04:03.960Z,31.47
2018-07-02T11:05:04.533Z,31.68
2018-07-02T11:06:05.099Z,31.93
2018-07-02T11:07:05.678Z,31.64
2018-07-02T11:08:06.249Z,31.37
2018-07-02T11:09:06.829Z,31.13
2018-07-02T11:10:07.400Z,31.32
2018-07-02T11:11:08.009Z,31.30
2018-07-02T11:12:08.560Z,31.21
2018-07-02T11:13:09.133Z,31.15
2018-07-02T11:14:09.719Z,31.30
2018-07-02T11:15:10.296Z,31.57
2018-07-02T11:16:10.885Z,32.14
2018-07-02T11:17:11.450Z,32.05
2018-07-02T11:18:12.003Z,31.85
2018-07-02T11:19:12.578Z,31.80
2018-07-02T11:20:13.153Z,31.60
2018-07-02T11:21:13.723Z,31.31
2018-07-02T11:22:14.290Z,31.20
2018-07-02T11:23:14.863Z,31.45
2018-07-02T11:24:15.438Z,31.58
2018-07-02T11:25:16.014Z,31.77
2018-07-02T11:26:16.584Z,31.96
2018-07-02T11:27:17.165Z,31.99
2018-07-02T11:28:17.740Z,31.80
2018-07-02T11:29:18.317Z,31.74
2018-07-02T11:30:18.902Z,31.92
2018-07-02T11:31:19.478Z,32.14
2018-07-02T11:32:20.100Z,32.07
2018-07-02T11:33:20.678Z,31.95
2018-07-02T11:34:21.276Z,32.02
2018-07-02T11:35:21.862Z,31.88
2018-07-02T11:36:22.441Z,31.82
2018-07-02T11:37:23.035Z,31.74
2018-07-02T11:38:23.603Z,31.69
2018-07-02T11:39:24.177Z,31.95
2018-07-02T11:40:24.743Z,32.17
2018-07-02T11:41:25.325Z,32.18
2018-07-02T11:42:25.892Z,32.39
2018-07-02T11:43:26.461Z,32.48
2018-07-02T11:44:27.038Z,32.44
2018-07-02T11:45:27.619Z,32.58
2018-07-02T11:46:28.203Z,32.39
2018-07-02T11:47:28.782Z,32.48
2018-07-02T11:48:29.359Z,32.76
2018-07-02T11:49:29.931Z,32.67
2018-07-02T11:50:30.513Z,32.56
2018-07-02T11:51:31.089Z,32.62
2018-07-02T11:52:31.670Z,32.52
2018-07-02T11:53:32.252Z,32.32
2018-07-02T11:54:32.834Z,32.77
2018-07-02T11:55:33.404Z,32.80
2018-07-02T11:56:33.986Z,32.88
2018-07-02T11:57:34.569Z,32.93
2018-07-02T11:58:35.148Z,33.22
2018-07-02T11:59:35.732Z,33.42
2018-07-02T12:00:36.310Z,33.41
2018-07-02T12:01:36.890Z,33.52
2018-07-02T12:02:37.472Z,33.52
2018-07-02T12:03:38.049Z,33.41
2018-07-02T12:04:38.621Z,33.23
2018-07-02T12:05:39.193Z,33.20
2018-07-02T12:06:39.771Z,32.88
2018-07-02T12:07:40.355Z,32.21
2018-07-02T12:08:40.936Z,32.39
2018-07-02T12:09:41.518Z,32.61
2018-07-02T12:10:42.101Z,33.04
2018-07-02T12:11:42.672Z,32.76
2018-07-02T12:12:43.249Z,32.49
2018-07-02T12:13:43.827Z,32.61
2018-07-02T12:14:44.405Z,32.85
2018-07-02T12:15:44.987Z,33.34
2018-07-02T12:16:45.565Z,33.65
2018-07-02T12:17:46.149Z,33.98
2018-07-02T12:18:46.735Z,33.89
2018-07-02T12:19:47.310Z,33.82
2018-07-02T12:20:47.875Z,34.08
2018-07-02T12:21:48.446Z,34.61
2018-07-02T12:22:49.016Z,35.03
2018-07-02T12:23:49.594Z,35.32
2018-07-02T12:24:50.176Z,35.42
2018-07-02T12:25:50.754Z,35.15
2018-07-02T12:26:51.326Z,34.77
2018-07-02T12:27:51.907Z,34.70
2018-07-02T12:28:52.505Z,35.18
2018-07-02T12:29:53.107Z,35.35
2018-07-02T12:30:53.692Z,35.57
2018-07-02T12:31:54.287Z,35.39
2018-07-02T12:32:54.883Z,34.79
2018-07-02T12:33:55.515Z,34.45
2018-07-02T12:34:56.113Z,34.42
2018-07-02T12:35:56.698Z,34.11
2018-07-02T12:36:57.366Z,34.07
2018-07-02T12:37:58.028Z,34.01
2018-07-02T12:38:58.646Z,34.30
2018-07-02T12:39:59.217Z,34.65
2018-07-02T12:40:59.815Z,35.05
2018-07-02T12:42:00.381Z,34.86
2018-07-02T12:43:00.967Z,34.14
2018-07-02T12:44:01.547Z,34.23
2018-07-02T12:45:02.130Z,34.58
2018-07-02T12:46:02.709Z,34.70
2018-07-02T12:47:03.293Z,34.99
2018-07-02T12:48:03.874Z,34.98
2018-07-02T12:49:04.456Z,34.76
2018-07-02T12:50:05.027Z,34.64
2018-07-02T12:51:05.604Z,34.17
2018-07-02T12:52:06.195Z,34.26
2018-07-02T12:53:06.755Z,34.39
2018-07-02T12:54:07.350Z,34.01
2018-07-02T12:55:07.890Z,33.87
2018-07-02T12:56:08.459Z,33.98
2018-07-02T12:57:09.029Z,34.13
2018-07-02T12:58:09.596Z,34.61
2018-07-02T12:59:10.173Z,34.98
2018-07-02T13:00:10.743Z,35.11